Time;durP1;ratioP1;P1;durP2;ratioP2;P2;SDS_P1;SDS_P2;PMS_P1;PMS_P2;Temp;Humidity;BMP_temperature;BMP_pressure;BME280_temperature;BME280_humidity;BME280_pressure;Samples;Min_cycle;Max_cycle;Signal;HPM_P1;HPM_P2
2020/12/07 00:00:38;;;;;;;45.42;25.67;;;;;;;3.58;77.77;98794.63;5078134;28;20044;-45
2020/12/07 00:03:04;;;;;;;42.70;26.70;;;;;;;3.44;78.29;98792.19;5077155;28;20060;-45
2020/12/07 00:05:30;;;;;;;36.45;21.98;;;;;;;3.48;78.20;98793.88;5078584;28;20094;-45
2020/12/07 00:07:56;;;;;;;82.75;41.22;;;;;;;3.51;78.16;98786.09;5078157;28;20326;-45
2020/12/07 00:10:22;;;;;;;134.70;66.95;;;;;;;3.48;78.08;98770.59;5078198;28;20126;-45
2020/12/07 00:12:48;;;;;;;226.15;114.32;;;;;;;3.45;78.20;98776.66;5078144;28;20437;-45
2020/12/07 00:15:14;;;;;;;152.15;77.72;;;;;;;3.35;78.55;98776.75;5077245;28;20048;-45
2020/12/07 00:17:39;;;;;;;46.22;26.10;;;;;;;3.49;78.33;98777.47;5077608;28;20059;-45
2020/12/07 00:20:06;;;;;;;48.08;32.03;;;;;;;3.39;78.30;98774.13;5078034;28;20197;-45
2020/12/07 00:22:32;;;;;;;41.58;23.75;;;;;;;3.60;77.80;98767.81;5078014;28;20037;-45
2020/12/07 00:24:59;;;;;;;40.75;24.25;;;;;;;3.44;78.47;98769.75;5077627;28;20128;-45
2020/12/07 00:27:28;;;;;;;51.28;35.15;;;;;;;3.40;78.51;98768.06;5077740;28;20352;-45
2020/12/07 00:29:54;;;;;;;35.63;21.27;;;;;;;3.50;78.07;98771.41;5060846;28;20052;-45
2020/12/07 00:32:20;;;;;;;35.22;21.77;;;;;;;3.42;78.46;98766.34;5077802;28;20106;-45
2020/12/07 00:34:46;;;;;;;33.13;18.75;;;;;;;3.59;77.69;98778.22;5077740;28;20048;-45
2020/12/07 00:37:12;;;;;;;35.08;20.17;;;;;;;3.48;78.12;98768.84;5077638;28;20479;-45
2020/12/07 00:39:38;;;;;;;38.15;21.80;;;;;;;3.45;78.18;98770.63;5060150;28;20053;-45
2020/12/07 00:42:04;;;;;;;34.15;18.73;;;;;;;3.43;78.14;98762.84;5077605;28;20047;-45
2020/12/07 00:44:30;;;;;;;30.52;16.65;;;;;;;3.48;78.03;98763.66;5077761;28;20106;-45
2020/12/07 00:46:56;;;;;;;31.55;19.48;;;;;;;3.43;78.17;98762.00;5076589;28;20052;-45
2020/12/07 00:49:21;;;;;;;34.58;17.35;;;;;;;3.51;77.85;98758.47;5076238;28;20063;-45
2020/12/07 00:51:48;;;;;;;32.67;18.60;;;;;;;3.41;78.25;98758.56;5077327;28;20059;-45
2020/12/07 00:54:15;;;;;;;32.13;19.58;;;;;;;3.48;77.87;98755.06;5076175;28;20048;-45
2020/12/07 00:56:41;;;;;;;31.05;16.75;;;;;;;3.42;78.16;98760.31;5076997;28;20053;-45
2020/12/07 00:59:07;;;;;;;31.60;18.38;;;;;;;3.38;78.21;98754.31;5076343;28;20099;-45
2020/12/07 01:01:34;;;;;;;34.95;20.58;;;;;;;3.40;78.27;98762.91;5075894;28;20444;-45
2020/12/07 01:04:00;;;;;;;32.17;18.63;;;;;;;3.34;78.51;98754.34;5076790;28;20056;-45
2020/12/07 01:06:30;;;;;;;34.38;18.77;;;;;;;3.31;78.54;98750.06;5076786;28;20158;-45
2020/12/07 01:08:57;;;;;;;32.35;18.73;;;;;;;3.36;78.16;98744.84;5076951;28;20048;-45
2020/12/07 01:11:23;;;;;;;33.33;20.95;;;;;;;3.44;77.98;98748.19;5042847;28;20076;-45
2020/12/07 01:13:49;;;;;;;33.30;19.98;;;;;;;3.48;77.82;98739.53;5077001;28;20059;-45
2020/12/07 01:16:22;;;;;;;32.83;19.88;;;;;;;3.45;77.84;98740.41;5075808;28;20040;-44
2020/12/07 01:18:48;;;;;;;31.13;17.95;;;;;;;3.39;78.28;98747.41;5076627;28;20048;-45
2020/12/07 01:21:14;;;;;;;35.05;18.42;;;;;;;3.42;77.87;98755.13;5059084;28;20486;-45
2020/12/07 01:23:41;;;;;;;28.23;17.65;;;;;;;3.31;78.32;98749.22;5076495;28;20056;-45
2020/12/07 01:26:12;;;;;;;28.10;16.88;;;;;;;3.26;78.59;98755.31;5076745;28;20047;-45
2020/12/07 01:28:41;;;;;;;31.58;19.67;;;;;;;3.32;78.35;98754.38;5075435;28;20040;-45
2020/12/07 01:31:07;;;;;;;28.55;16.77;;;;;;;3.09;78.80;98741.72;5059218;28;20044;-45
2020/12/07 01:33:33;;;;;;;29.33;17.60;;;;;;;3.19;78.68;98743.31;5075780;28;20101;-45
2020/12/07 01:35:59;;;;;;;26.67;15.93;;;;;;;3.24;78.42;98746.69;5075532;28;20041;-45
2020/12/07 01:38:25;;;;;;;24.95;16.35;;;;;;;3.30;78.18;98752.69;5076262;28;20056;-45
2020/12/07 01:40:51;;;;;;;31.63;17.58;;;;;;;3.24;78.11;98757.06;5075355;28;20048;-45
2020/12/07 01:43:19;;;;;;;34.42;17.25;;;;;;;3.32;78.19;98741.44;5042706;28;20345;-45
2020/12/07 01:45:46;;;;;;;24.70;16.33;;;;;;;3.29;78.06;98749.25;5075683;28;20128;-45
2020/12/07 01:48:13;;;;;;;25.88;15.38;;;;;;;3.19;78.65;98748.50;5076369;28;20048;-45
2020/12/07 01:50:42;;;;;;;29.17;15.65;;;;;;;3.17;78.62;98749.41;5076776;28;20570;-45
2020/12/07 01:53:09;;;;;;;25.45;15.18;;;;;;;3.14;78.60;98749.44;5075279;28;20106;-45
2020/12/07 01:55:45;;;;;;;26.25;15.25;;;;;;;3.23;78.43;98747.59;5075535;28;20044;-45
2020/12/07 01:58:13;;;;;;;23.48;14.90;;;;;;;3.21;78.66;98738.13;5059190;28;20071;-45
2020/12/07 02:00:39;;;;;;;24.40;14.88;;;;;;;3.17;78.49;98732.13;5075238;28;20425;-45
2020/12/07 02:03:10;;;;;;;25.58;16.25;;;;;;;3.22;78.30;98727.78;5074618;28;20056;-45
2020/12/07 02:05:40;;;;;;;28.80;16.60;;;;;;;3.23;78.41;98720.84;5058802;28;20060;-45
2020/12/07 02:08:16;;;;;;;26.15;16.42;;;;;;;3.19;78.57;98722.63;5075173;28;20425;-45
2020/12/07 02:10:50;;;;;;;25.73;15.52;;;;;;;3.26;78.27;98720.81;5075391;28;20048;-45
2020/12/07 02:13:20;;;;;;;28.58;17.08;;;;;;;3.13;78.88;98717.53;5077055;28;20062;-45
2020/12/07 02:15:46;;;;;;;24.20;15.80;;;;;;;3.23;78.59;98721.69;5075932;28;20464;-45
2020/12/07 02:18:14;;;;;;;25.90;16.52;;;;;;;3.35;77.84;98714.63;5075319;28;20121;-45
2020/12/07 02:20:48;;;;;;;24.88;15.20;;;;;;;3.19;78.42;98719.19;5075887;28;20390;-45
2020/12/07 02:23:27;;;;;;;25.73;15.77;;;;;;;3.23;78.41;98713.94;5075746;28;20478;-45
2020/12/07 02:25:57;;;;;;;29.20;16.30;;;;;;;3.15;78.65;98718.38;5059240;28;20109;-45
2020/12/07 02:28:24;;;;;;;22.83;15.32;;;;;;;3.35;77.80;98723.28;5075164;28;20048;-45
2020/12/07 02:30:50;;;;;;;26.88;16.60;;;;;;;3.21;78.31;98722.59;5074913;28;20047;-45
2020/12/07 02:33:16;;;;;;;27.02;18.02;;;;;;;3.16;78.45;98709.72;5076480;28;20048;-45
2020/12/07 02:35:42;;;;;;;27.40;16.38;;;;;;;3.33;77.80;98708.66;5074872;28;20040;-45
2020/12/07 02:38:08;;;;;;;30.00;17.55;;;;;;;3.33;77.85;98724.19;5058315;28;20059;-44
2020/12/07 02:40:39;;;;;;;24.90;16.50;;;;;;;3.18;78.05;98722.63;5075033;28;20044;-45
2020/12/07 02:43:06;;;;;;;29.77;16.40;;;;;;;3.24;78.09;98720.81;5075122;28;20037;-44
2020/12/07 02:45:33;;;;;;;23.77;14.63;;;;;;;3.36;77.60;98718.97;5075609;28;20057;-45
2020/12/07 02:48:03;;;;;;;23.77;15.20;;;;;;;3.22;78.12;98714.81;5074944;28;20040;-45
2020/12/07 02:50:32;;;;;;;28.13;16.58;;;;;;;3.33;77.54;98719.00;5074743;28;20049;-45
2020/12/07 02:52:59;;;;;;;25.15;15.65;;;;;;;3.34;77.20;98726.72;5074974;28;20048;-45
2020/12/07 02:55:25;;;;;;;28.35;17.00;;;;;;;3.21;77.68;98715.69;5074710;28;20089;-45
2020/12/07 02:57:52;;;;;;;26.33;15.73;;;;;;;3.18;78.06;98730.38;5074930;28;20044;-45
2020/12/07 03:00:23;;;;;;;24.48;15.77;;;;;;;3.04;78.30;98727.97;5074718;28;20044;-45
2020/12/07 03:02:49;;;;;;;25.10;15.52;;;;;;;3.17;77.98;98726.94;5074455;28;20056;-45
2020/12/07 03:05:20;;;;;;;23.77;15.38;;;;;;;3.08;78.32;98721.88;5074939;28;20040;-45
2020/12/07 03:07:46;;;;;;;25.98;14.57;;;;;;;3.09;77.97;98726.22;5074778;28;20110;-44
2020/12/07 03:10:13;;;;;;;25.02;15.88;;;;;;;3.02;78.46;98737.47;5074460;28;20056;-45
2020/12/07 03:12:41;;;;;;;25.52;15.93;;;;;;;3.09;77.92;98735.69;5075347;28;20504;-45
2020/12/07 03:15:11;;;;;;;26.63;16.05;;;;;;;3.00;78.42;98744.41;5076934;28;20532;-45
2020/12/07 03:17:41;;;;;;;26.95;15.23;;;;;;;3.09;77.97;98736.56;5078410;28;20055;-45
2020/12/07 03:20:08;;;;;;;24.20;15.55;;;;;;;3.04;78.06;98739.19;5078269;28;20079;-45
2020/12/07 03:22:34;;;;;;;24.60;15.00;;;;;;;3.04;78.01;98735.75;5078036;28;20044;-45
2020/12/07 03:25:01;;;;;;;26.33;16.02;;;;;;;3.04;78.09;98726.25;5077919;28;20068;-45
2020/12/07 03:27:29;;;;;;;24.90;15.85;;;;;;;2.90;78.53;98737.63;5078125;28;20135;-45
2020/12/07 03:29:55;;;;;;;22.77;14.30;;;;;;;2.86;78.21;98733.34;5078915;28;20040;-45
2020/12/07 03:32:24;;;;;;;25.83;15.50;;;;;;;2.84;78.45;98735.13;5077799;28;20052;-45
2020/12/07 03:34:49;;;;;;;29.98;16.80;;;;;;;2.84;78.56;98730.81;5078018;28;20085;-45
2020/12/07 03:37:16;;;;;;;25.30;14.88;;;;;;;2.95;78.40;98728.94;5078016;28;20052;-45
2020/12/07 03:39:54;;;;;;;25.45;16.33;;;;;;;2.98;77.94;98725.47;5078160;28;20124;-45
2020/12/07 03:42:22;;;;;;;26.15;16.42;;;;;;;2.98;78.05;98731.47;5077655;28;20365;-45
2020/12/07 03:44:49;;;;;;;24.50;15.57;;;;;;;2.96;78.04;98727.22;5078448;28;20075;-45
2020/12/07 03:47:17;;;;;;;25.58;15.32;;;;;;;2.95;78.14;98734.09;5077742;28;20128;-45
2020/12/07 03:49:48;;;;;;;24.83;14.98;;;;;;;2.87;78.33;98732.50;5077759;28;20102;-45
2020/12/07 03:52:14;;;;;;;24.67;14.02;;;;;;;2.96;78.27;98733.25;5077574;28;20048;-45
2020/12/07 03:54:40;;;;;;;28.65;16.05;;;;;;;2.90;78.12;98732.47;5078276;28;20078;-45
2020/12/07 03:57:07;;;;;;;22.83;14.10;;;;;;;2.84;78.22;98724.78;5077652;28;20080;-45
2020/12/07 03:59:34;;;;;;;24.02;14.32;;;;;;;2.92;78.25;98731.56;5060940;28;20391;-45
2020/12/07 04:02:02;;;;;;;22.80;14.32;;;;;;;2.94;77.97;98734.13;5060843;28;20067;-45
2020/12/07 04:04:49;;;;;;;23.77;14.63;;;;;;;2.89;77.89;98738.50;5077278;28;20090;-45
2020/12/07 04:07:14;;;;;;;32.40;18.90;;;;;;;2.93;78.11;98745.38;5078589;28;20413;-45
2020/12/07 04:09:41;;;;;;;25.77;15.85;;;;;;;3.00;77.62;98744.41;5077150;28;20041;-45
2020/12/07 04:12:07;;;;;;;27.25;17.13;;;;;;;2.95;77.86;98738.44;5078234;28;20117;-45
2020/12/07 04:14:32;;;;;;;23.67;15.20;;;;;;;2.87;77.93;98733.34;5078167;28;20068;-45
2020/12/07 04:16:58;;;;;;;26.33;15.68;;;;;;;2.92;77.81;98741.91;5077039;28;20500;-45
2020/12/07 04:19:24;;;;;;;24.80;16.13;;;;;;;2.91;77.81;98741.94;5077733;28;20044;-45
2020/12/07 04:21:49;;;;;;;28.70;17.85;;;;;;;2.86;77.80;98736.81;5077165;28;20059;-45
2020/12/07 04:24:15;;;;;;;28.35;17.33;;;;;;;2.90;77.87;98732.47;5077764;28;20338;-45
2020/12/07 04:26:41;;;;;;;25.52;16.58;;;;;;;2.82;77.64;98732.53;5077295;28;20040;-45
2020/12/07 04:29:07;;;;;;;28.95;16.90;;;;;;;2.88;77.70;98736.78;5077753;28;20348;-45
2020/12/07 04:31:33;;;;;;;27.35;16.67;;;;;;;2.80;77.92;98726.53;5077830;28;20109;-45
2020/12/07 04:33:58;;;;;;;28.17;17.35;;;;;;;2.73;78.08;98723.16;5078063;28;20340;-45
2020/12/07 04:36:24;;;;;;;26.67;15.57;;;;;;;2.98;77.35;98720.28;5078050;28;20417;-45
2020/12/07 04:38:50;;;;;;;22.83;13.77;;;;;;;2.94;77.38;98714.28;5077625;28;20049;-45
2020/12/07 04:41:16;;;;;;;23.40;13.65;;;;;;;2.91;77.26;98716.91;5077645;28;20417;-45
2020/12/07 04:43:41;;;;;;;18.25;12.55;;;;;;;2.86;77.32;98712.66;5077569;28;20109;-45
2020/12/07 04:46:07;;;;;;;18.20;11.85;;;;;;;2.88;77.46;98714.38;5043884;28;20478;-45
2020/12/07 04:48:34;;;;;;;20.33;13.50;;;;;;;2.85;77.52;98711.81;5077344;28;20105;-45
2020/12/07 04:51:00;;;;;;;19.67;12.07;;;;;;;2.77;77.75;98709.31;5077548;28;20040;-45
2020/12/07 04:53:26;;;;;;;20.00;13.50;;;;;;;2.83;77.53;98710.09;5076339;28;20455;-45
2020/12/07 04:55:52;;;;;;;23.15;14.48;;;;;;;2.95;76.98;98697.88;5059611;28;20060;-45
2020/12/07 04:58:18;;;;;;;20.85;13.38;;;;;;;2.77;77.58;98711.06;5042969;28;20054;-45
2020/12/07 05:00:44;;;;;;;21.77;13.77;;;;;;;2.75;77.48;98707.63;5076079;28;20059;-45
2020/12/07 05:03:09;;;;;;;19.33;12.98;;;;;;;2.86;77.64;98704.91;5076566;28;20224;-45
2020/12/07 05:05:36;;;;;;;21.23;13.15;;;;;;;2.86;77.53;98704.91;5076901;28;20437;-45
2020/12/07 05:08:02;;;;;;;20.00;12.50;;;;;;;2.83;77.73;98702.34;5076809;28;20045;-45
2020/12/07 05:10:37;;;;;;;19.20;12.25;;;;;;;2.85;77.71;98714.41;5076755;28;20117;-45
2020/12/07 05:15:42;;;;;;;20.73;12.32;;;;;;;2.79;77.86;98705.00;5077259;28;20102;-44
2020/12/07 05:18:08;;;;;;;18.42;12.77;;;;;;;2.75;77.96;98711.06;5076669;28;20357;-45
2020/12/07 05:20:34;;;;;;;20.42;12.65;;;;;;;2.92;77.18;98705.69;5076871;28;20440;-45
2020/12/07 05:23:00;;;;;;;21.10;12.38;;;;;;;2.86;77.51;98702.31;5076604;28;20546;-45
2020/12/07 05:25:26;;;;;;;19.92;12.52;;;;;;;3.01;76.89;98697.81;5075937;28;20064;-45
2020/12/07 05:27:52;;;;;;;17.52;12.25;;;;;;;2.95;77.17;98694.44;5075784;28;20045;-45
2020/12/07 05:30:24;;;;;;;50.72;27.33;;;;;;;2.94;77.24;98685.00;5076754;28;20453;-45
2020/12/07 05:32:50;;;;;;;25.60;15.25;;;;;;;3.00;76.87;98697.84;5076728;28;20056;-45
2020/12/07 05:35:16;;;;;;;21.38;13.45;;;;;;;2.98;76.92;98694.41;5076326;28;20421;-45
2020/12/07 05:37:42;;;;;;;17.45;10.80;;;;;;;2.99;76.80;98694.41;5075623;28;20044;-45
2020/12/07 05:40:09;;;;;;;19.40;11.80;;;;;;;2.91;77.38;98703.97;5076274;28;20064;-45
2020/12/07 05:42:35;;;;;;;23.15;13.20;;;;;;;3.12;76.40;98713.22;5076229;28;20475;-45
2020/12/07 05:45:02;;;;;;;21.27;13.73;;;;;;;3.02;76.74;98711.59;5075618;28;20049;-45
2020/12/07 05:47:30;;;;;;;20.08;12.52;;;;;;;2.98;76.65;98708.19;5076426;28;20091;-45
2020/12/07 05:49:56;;;;;;;18.00;11.32;;;;;;;3.08;76.34;98724.47;5075591;28;20056;-45
2020/12/07 05:52:46;;;;;;;19.38;11.60;;;;;;;2.98;76.75;98734.06;5076180;28;20403;-45
2020/12/07 05:55:16;;;;;;;19.98;12.68;;;;;;;2.94;76.74;98727.22;5072683;28;20076;-45
2020/12/07 05:57:50;;;;;;;17.83;11.70;;;;;;;2.87;76.71;98727.31;5076737;28;20109;-45
2020/12/07 06:00:19;;;;;;;15.80;11.05;;;;;;;2.97;76.77;98721.16;5076087;28;20449;-45
2020/12/07 06:02:45;;;;;;;21.27;13.43;;;;;;;2.95;76.76;98726.34;5075911;28;20398;-45
2020/12/07 06:05:12;;;;;;;21.90;12.77;;;;;;;2.88;76.84;98726.44;5058570;28;20073;-45
2020/12/07 06:07:37;;;;;;;19.92;12.95;;;;;;;2.95;76.66;98722.91;5058858;28;20081;-45
2020/12/07 06:10:03;;;;;;;23.42;13.38;;;;;;;3.01;76.43;98720.25;5058537;28;20569;-45
2020/12/07 06:12:32;;;;;;;18.27;11.35;;;;;;;2.85;76.83;98716.13;5075378;28;20050;-45
2020/12/07 06:14:58;;;;;;;21.75;12.77;;;;;;;2.89;76.82;98729.00;5059356;28;20071;-45
2020/12/07 06:17:25;;;;;;;18.08;11.55;;;;;;;2.95;76.30;98723.75;5075335;28;20045;-45
2020/12/07 06:19:51;;;;;;;19.63;12.73;;;;;;;2.97;76.48;98718.59;5076180;28;20059;-45
2020/12/07 06:22:19;;;;;;;24.02;14.18;;;;;;;2.97;76.50;98713.41;5076182;28;20075;-45
2020/12/07 06:24:45;;;;;;;19.70;12.10;;;;;;;2.97;76.40;98716.00;5076113;28;20106;-45
2020/12/07 06:27:12;;;;;;;23.02;13.88;;;;;;;2.95;76.28;98712.56;5074934;28;20048;-45
2020/12/07 06:29:38;;;;;;;30.00;17.55;;;;;;;3.08;76.07;98723.63;5075955;28;20048;-45
2020/12/07 06:32:04;;;;;;;22.65;12.90;;;;;;;2.92;76.13;98722.94;5076052;28;20074;-45
2020/12/07 06:34:39;;;;;;;24.98;14.15;;;;;;;2.87;76.51;98740.25;5058568;28;20110;-45
2020/12/07 06:37:14;;;;;;;33.80;19.40;;;;;;;3.02;75.92;98735.78;5076005;28;20131;-45
2020/12/07 06:39:44;;;;;;;24.75;13.43;;;;;;;2.90;76.01;98733.31;5076012;28;20068;-45
2020/12/07 06:42:10;;;;;;;51.35;27.65;;;;;;;2.87;76.30;98735.09;5075928;28;20048;-45
2020/12/07 06:44:44;;;;;;;36.40;21.50;;;;;;;3.04;75.80;98736.59;5075623;28;20076;-45
2020/12/07 06:47:14;;;;;;;39.72;23.83;;;;;;;3.09;75.54;98738.25;5074777;28;20135;-45
2020/12/07 06:49:50;;;;;;;45.10;23.58;;;;;;;3.09;75.47;98752.09;5078379;28;20052;-45
2020/12/07 06:52:18;;;;;;;70.30;41.10;;;;;;;3.04;75.45;98746.94;5079231;28;20190;-45
2020/12/07 06:57:30;;;;;;;283.05;168.43;;;;;;;3.06;75.57;98756.44;5078712;28;20123;-45
2020/12/07 07:00:09;;;;;;;491.08;289.02;;;;;;;3.10;75.34;98750.34;5079545;28;20060;-45
2020/12/07 07:02:37;;;;;;;156.30;109.85;;;;;;;3.04;75.64;98756.44;5079192;28;20056;-45
2020/12/07 07:05:02;;;;;;;69.10;48.97;;;;;;;3.12;75.38;98761.50;5079175;28;20048;-45
2020/12/07 07:07:29;;;;;;;33.85;19.45;;;;;;;3.10;75.34;98766.72;5078625;28;20052;-45
2020/12/07 07:09:55;;;;;;;34.33;20.17;;;;;;;3.16;75.30;98764.06;5078289;28;20070;-45
2020/12/07 07:12:21;;;;;;;35.13;19.38;;;;;;;3.24;75.19;98763.97;5079016;28;20053;-45
2020/12/07 07:14:48;;;;;;;41.40;22.45;;;;;;;3.15;75.42;98762.38;5079296;28;20048;-45
2020/12/07 07:17:15;;;;;;;29.17;17.73;;;;;;;3.18;75.25;98761.44;5079230;28;20049;-45
2020/12/07 07:19:41;;;;;;;26.15;16.55;;;;;;;3.21;75.07;98749.31;5079210;28;20055;-45
2020/12/07 07:22:07;;;;;;;33.83;20.13;;;;;;;3.38;74.45;98746.56;5079145;28;20344;-45
2020/12/07 07:24:43;;;;;;;34.90;20.42;;;;;;;3.42;74.11;98760.31;5079117;28;20044;-45
2020/12/07 07:29:53;;;;;;;23.02;13.57;;;;;;;3.27;74.84;98751.84;5078655;28;20047;-45
2020/12/07 07:32:21;;;;;;;19.75;12.43;;;;;;;3.32;74.69;98756.97;5078744;28;20068;-45
2020/12/07 07:34:46;;;;;;;21.25;12.00;;;;;;;3.32;74.71;98772.50;5079274;28;20045;-45
2020/12/07 07:37:13;;;;;;;22.48;14.18;;;;;;;3.32;74.94;98766.47;5078893;28;20079;-45
2020/12/07 07:39:39;;;;;;;40.22;21.13;;;;;;;3.42;74.46;98781.88;5077774;28;20044;-45
2020/12/07 07:42:09;;;;;;;36.42;20.48;;;;;;;3.48;74.62;98786.13;5078806;28;20059;-45
2020/12/07 07:44:42;;;;;;;30.77;16.58;;;;;;;3.50;74.11;98792.13;5077760;28;20372;-45
2020/12/07 07:47:13;;;;;;;24.02;13.65;;;;;;;3.60;73.99;98795.44;5077640;28;20436;-45
2020/12/07 07:50:43;;;;;;;35.42;17.40;;;;;;;3.56;74.21;98797.22;5062356;28;20044;-45
2020/12/07 08:17:12;;;;;;;83.30;27.70;;;;;;;3.81;72.86;98813.31;5064111;28;20122;-45
2020/12/07 08:19:38;;;;;;;95.85;33.25;;;;;;;3.87;72.67;98817.56;5077309;28;20061;-45
2020/12/07 08:22:17;;;;;;;86.80;28.92;;;;;;;3.91;72.66;98814.03;5077763;28;20060;-45
2020/12/07 08:25:00;;;;;;;88.57;31.92;;;;;;;3.89;72.77;98823.56;5076865;28;20437;-45
2020/12/07 08:27:32;;;;;;;102.03;34.75;;;;;;;3.94;72.69;98817.44;5076851;28;20480;-45
2020/12/07 08:29:59;;;;;;;79.82;28.98;;;;;;;3.97;72.77;98819.13;5078064;28;20125;-45
2020/12/07 08:32:25;;;;;;;87.38;30.35;;;;;;;4.02;72.49;98821.66;5078148;28;20075;-45
2020/12/07 08:34:51;;;;;;;103.47;36.55;;;;;;;4.09;71.95;98825.84;5078331;28;20037;-45
2020/12/07 08:37:17;;;;;;;86.57;29.70;;;;;;;4.15;71.58;98826.63;5077741;28;20072;-45
2020/12/07 08:39:43;;;;;;;114.40;34.42;;;;;;;4.11;72.07;98826.69;5077666;28;20429;-45
2020/12/07 08:42:08;;;;;;;70.30;23.63;;;;;;;4.01;72.24;98825.97;5077309;28;20064;-45
2020/12/07 08:44:34;;;;;;;64.13;23.65;;;;;;;3.95;72.62;98828.66;5077919;28;20404;-45
2020/12/07 08:47:00;;;;;;;90.28;27.75;;;;;;;4.02;72.89;98826.81;5077571;28;20053;-45
2020/12/07 08:49:26;;;;;;;43.30;17.95;;;;;;;4.12;72.48;98821.47;5077125;28;20436;-45
2020/12/07 08:51:52;;;;;;;74.10;24.95;;;;;;;4.20;72.22;98822.25;5076392;28;20044;-45
2020/12/07 08:54:18;;;;;;;27.85;14.15;;;;;;;4.13;72.79;98819.78;5059679;28;20109;-45
2020/12/07 08:56:44;;;;;;;21.10;12.75;;;;;;;4.16;72.45;98822.28;5077129;28;20036;-45
2020/12/07 08:59:10;;;;;;;18.83;10.80;;;;;;;4.21;72.43;98825.69;5059897;28;20041;-45
2020/12/07 09:01:35;;;;;;;19.23;11.70;;;;;;;4.25;72.46;98829.94;5076733;28;20057;-45
2020/12/07 09:04:03;;;;;;;23.08;11.48;;;;;;;4.26;72.37;98826.47;5076381;28;20063;-45
2020/12/07 09:06:29;;;;;;;22.40;11.57;;;;;;;4.44;72.38;98831.38;5077156;28;20052;-45
2020/12/07 09:08:54;;;;;;;21.10;12.13;;;;;;;4.49;71.81;98828.72;5075953;28;20050;-45
2020/12/07 09:11:21;;;;;;;59.80;32.08;;;;;;;4.45;71.45;98840.88;5076832;28;20048;-45
2020/12/07 09:13:47;;;;;;;45.20;26.90;;;;;;;4.58;71.86;98838.94;5076246;28;20138;-45
2020/12/07 09:16:13;;;;;;;30.88;20.10;;;;;;;4.74;71.61;98831.75;5076714;28;20433;-45
2020/12/07 09:18:39;;;;;;;33.70;22.20;;;;;;;4.85;70.72;98829.84;5076062;28;20056;-45
2020/12/07 09:21:05;;;;;;;37.13;19.27;;;;;;;4.91;70.04;98824.53;5076680;28;20040;-45
2020/12/07 09:23:32;;;;;;;99.85;56.83;;;;;;;5.02;70.37;98818.28;5076606;28;20101;-45
2020/12/07 09:25:58;;;;;;;94.90;55.75;;;;;;;4.97;70.57;98831.34;5075633;28;20063;-45
2020/12/07 09:28:24;;;;;;;27.85;16.33;;;;;;;5.14;70.26;98828.47;5076733;28;20049;-45
2020/12/07 09:30:49;;;;;;;99.45;54.63;;;;;;;5.21;70.90;98824.00;5075872;28;20049;-46
2020/12/07 09:33:15;;;;;;;85.45;37.60;;;;;;;5.33;70.65;98824.63;5076690;28;20040;-46
2020/12/07 09:35:41;;;;;;;62.67;25.13;;;;;;;5.39;69.98;98821.03;5075574;28;20045;-46
2020/12/07 09:38:07;;;;;;;82.82;33.67;;;;;;;5.51;69.69;98815.59;5075497;28;20052;-46
2020/12/07 09:40:33;;;;;;;124.57;49.10;;;;;;;5.63;69.27;98817.97;5076631;28;20056;-46
2020/12/07 09:43:02;;;;;;;52.53;21.90;;;;;;;5.77;68.60;98822.00;5076574;28;20082;-45
2020/12/07 09:45:31;;;;;;;60.70;25.27;;;;;;;5.63;69.39;98814.50;5076293;28;20045;-45
2020/12/07 09:47:59;;;;;;;34.70;18.02;;;;;;;5.75;69.17;98810.78;5076421;28;20379;-45
2020/12/07 09:50:25;;;;;;;25.45;12.98;;;;;;;5.70;68.19;98802.25;5075949;28;20086;-46
2020/12/07 09:52:51;;;;;;;23.90;12.48;;;;;;;5.67;68.48;98803.16;5075225;28;20048;-46
2020/12/07 09:55:17;;;;;;;19.80;12.02;;;;;;;5.75;68.59;98806.47;5075551;28;20060;-46
2020/12/07 09:57:43;;;;;;;27.92;16.42;;;;;;;5.82;68.65;98802.84;5076174;28;20448;-45
2020/12/07 10:00:08;;;;;;;17.77;13.35;;;;;;;5.77;68.28;98807.25;5076398;28;20052;-45
2020/12/07 10:02:35;;;;;;;23.00;14.82;;;;;;;5.73;68.56;98804.78;5076055;28;20064;-46
2020/12/07 10:05:01;;;;;;;35.72;17.63;;;;;;;5.66;68.68;98803.22;5075398;28;20053;-46
2020/12/07 10:07:27;;;;;;;29.05;14.65;;;;;;;5.78;68.59;98805.50;5075394;28;20117;-45
2020/12/07 10:09:53;;;;;;;25.95;13.20;;;;;;;5.84;68.20;98805.38;5076445;28;20041;-46
2020/12/07 10:12:19;;;;;;;35.92;17.33;;;;;;;5.91;68.60;98819.09;5075366;28;20052;-46
2020/12/07 10:14:44;;;;;;;48.60;20.75;;;;;;;6.06;67.51;98811.84;5076151;28;20047;-46
2020/12/07 10:17:10;;;;;;;44.92;20.02;;;;;;;6.00;67.73;98808.53;5076222;28;20059;-46
2020/12/07 10:19:36;;;;;;;24.80;14.65;;;;;;;5.87;68.20;98802.72;5076209;28;20079;-45
2020/12/07 10:22:04;;;;;;;25.52;14.25;;;;;;;6.08;67.71;98811.84;5074991;28;20044;-46
2020/12/07 10:24:30;;;;;;;20.63;12.75;;;;;;;5.97;67.78;98814.66;5077414;28;20044;-46
2020/12/07 10:26:56;;;;;;;29.42;14.65;;;;;;;6.18;67.54;98802.09;5079174;28;20433;-46
2020/12/07 10:29:22;;;;;;;19.77;12.38;;;;;;;6.17;67.72;98796.00;5079289;28;20045;-45
2020/12/07 10:31:48;;;;;;;16.13;10.57;;;;;;;6.07;67.37;98794.50;5080226;28;20345;-46
2020/12/07 10:34:14;;;;;;;18.33;10.80;;;;;;;6.19;66.98;98790.78;5079238;28;20059;-46
2020/12/07 10:36:39;;;;;;;19.50;12.20;;;;;;;6.21;67.19;98795.06;5078985;28;20063;-46
2020/12/07 10:39:08;;;;;;;18.88;11.32;;;;;;;6.33;66.61;98799.09;5079689;28;20044;-46
2020/12/07 10:41:34;;;;;;;18.35;11.07;;;;;;;6.31;66.96;98787.91;5079978;28;20056;-46
2020/12/07 10:44:00;;;;;;;23.55;12.43;;;;;;;6.37;67.03;98787.75;5078848;28;20098;-46
2020/12/07 10:46:25;;;;;;;26.13;14.55;;;;;;;6.46;66.64;98805.72;5079885;28;20048;-46
2020/12/07 10:48:51;;;;;;;37.25;19.10;;;;;;;6.43;67.23;98804.94;5079773;28;20106;-46
2020/12/07 10:51:18;;;;;;;58.72;26.10;;;;;;;6.48;66.70;98810.91;5080582;28;20066;-45
2020/12/07 10:53:44;;;;;;;37.35;18.45;;;;;;;6.53;66.18;98799.50;5079463;28;20040;-45
2020/12/07 10:56:10;;;;;;;43.38;19.58;;;;;;;6.52;66.38;98815.97;5079395;28;20536;-45
2020/12/07 10:58:38;;;;;;;41.85;19.25;;;;;;;6.69;65.77;98812.09;5079663;28;20048;-46
2020/12/07 11:01:04;;;;;;;63.60;25.23;;;;;;;6.61;66.46;98811.47;5079606;28;20064;-45
2020/12/07 11:03:29;;;;;;;77.40;29.60;;;;;;;6.83;65.08;98806.56;5079046;28;20190;-46
2020/12/07 11:05:56;;;;;;;61.45;25.40;;;;;;;6.72;65.46;98809.44;5079197;28;20460;-45
2020/12/07 11:08:32;;;;;;;44.72;20.15;;;;;;;6.73;65.22;98805.94;5079084;28;20040;-45
2020/12/07 11:10:58;;;;;;;32.83;15.18;;;;;;;6.76;65.19;98796.31;5079467;28;20059;-45
2020/12/07 11:13:28;;;;;;;37.72;15.38;;;;;;;6.81;65.72;98795.34;5078166;28;20053;-46
2020/12/07 11:15:55;;;;;;;48.05;20.75;;;;;;;6.76;65.25;98795.47;5078461;28;20044;-45
2020/12/07 11:18:21;;;;;;;82.72;31.00;;;;;;;6.66;64.99;98792.25;5078958;28;20048;-46
2020/12/07 11:20:47;;;;;;;47.45;20.20;;;;;;;6.69;65.53;98792.13;5061533;28;20105;-46
2020/12/07 11:23:13;;;;;;;80.35;30.90;;;;;;;6.73;65.64;98792.94;5078298;28;20060;-45
2020/12/07 11:25:39;;;;;;;80.68;30.00;;;;;;;6.78;65.67;98799.72;5079089;28;20117;-46
2020/12/07 11:28:04;;;;;;;73.50;27.00;;;;;;;6.81;65.25;98795.34;5078796;28;20048;-46
2020/12/07 11:30:30;;;;;;;42.55;20.10;;;;;;;6.79;65.07;98788.44;5079073;28;20113;-45
2020/12/07 11:32:56;;;;;;;66.82;26.15;;;;;;;6.69;65.61;98794.75;5078183;28;20036;-45
2020/12/07 11:35:22;;;;;;;65.25;24.70;;;;;;;6.74;65.25;98808.50;5077547;28;20055;-45
2020/12/07 11:37:54;;;;;;;46.30;19.35;;;;;;;6.72;65.45;98793.81;5079265;28;20057;-45
2020/12/07 11:43:03;;;;;;;66.05;24.88;;;;;;;6.73;65.34;98793.78;5078888;28;20053;-45
2020/12/07 11:45:29;;;;;;;88.90;33.78;;;;;;;6.76;65.48;98780.69;5078056;28;20121;-46
2020/12/07 11:47:55;;;;;;;66.97;27.77;;;;;;;6.82;64.79;98774.47;5078416;28;20428;-46
2020/12/07 11:50:21;;;;;;;91.80;33.90;;;;;;;6.71;65.22;98784.31;5061041;28;20107;-45
2020/12/07 11:52:47;;;;;;;84.32;30.45;;;;;;;6.63;65.90;98791.44;5077482;28;20176;-46
2020/12/07 11:55:12;;;;;;;65.45;28.10;;;;;;;6.70;66.07;98796.47;5078441;28;20066;-46
2020/12/07 11:57:38;;;;;;;68.93;26.35;;;;;;;6.75;65.72;98788.53;5078282;28;20356;-46
2020/12/07 12:00:04;;;;;;;62.55;25.77;;;;;;;6.73;65.94;98785.13;5078491;28;20052;-45